Airfield :
LOGIN :

Register | Disclaimer

   EN    FR    IT 

 










Legend :    VFR   Marginal VFR   IFR   Intensive IFR   Very Intensive IFR
Visi :
Ceiling :
>= 8 km
>= 3000ft
5 to 8 km
1000 to 3000 ft
1500m to 5 km
500 to 1000 ft
800 to 1500m
200 to 500 ft
< 800m
< 200 ft
Symbols :   Thunderstorms  Fog  Heavy snow  Heavy precipitations  Wind > 20 kt
SIGMETs :     Misc.  Thunderstorms  Icing  Turbulence  Mountain Waves  Volcanic Ashes






- Airport Elevation : 53 ft
- IATA code : AGP


LEMG - Malaga

CURRENT METAR :
  • 211300Z 11008KT 060V160 9999 FEW040 19/07 Q1016 NOSIG

EXPIRED METARs :
  • 211230Z 12012KT 080V160 9999 FEW040 19/08 Q1016 NOSIG
  • 211200Z 14009KT 100V200 9999 FEW040 20/09 Q1016 NOSIG
  • 211130Z 12010KT 090V150 9999 FEW030 SCT048 19/09 Q1017 NOSIG
  • 211100Z 13011KT 100V160 9999 FEW030 SCT048 19/09 Q1016 NOSIG
  • 211030Z 13011KT 090V160 9999 SCT029 SCT036 18/09 Q1017 NOSIG
  • 211000Z 13010KT 100V170 9999 SCT029 BKN036 18/11 Q1017 NOSIG
  • 210900Z 13009KT 100V160 9999 SCT019 BKN028 17/12 Q1016 NOSIG
  • 210930Z 13011KT 100V160 9999 SCT022 BKN032 17/10 Q1016 NOSIG
  • 210830Z 13010KT 9999 SCT019 BKN028 17/12 Q1016 NOSIG

TAF TAF LEMG
Valid from the 21 at 12:00 until the 22 at 12:00 UTC


211100Z 2112/2212 14010KT 9999 FEW020 SCT030 TX21/2114Z TN17/2206Z
BECMG 2121/2123 29005KT
BECMG 2210/2212 14010KT



MET'MAP, your aeronautical weather chart ! - Copyright ORBIFLY December 2007 - Disclaimer

ORBIFLY MET'MAP TEAM :

Programming & Development : Alexandra Zaïnal
Original concept : Baudouin d'Aumeries
Technical & hardware support : Manuel Goepfert
Assistance : Marc-Olivier Méhu




SOURCES & CREDITS :

   NOAA